<?xml version="1.0" encoding="UTF-8" standalone="no" ?>
<gpx xmlns="http://www.topografix.com/GPX/1/1" xmlns:xsi="http://www.w3.org/2001/XMLSchema-instance" xsi:schemaLocation="http://www.topografix.com/GPX/1/1 http://www.topografix.com/GPX/1/1/gpx.xsd" version="1.1" creator="VisuGPX - https://www.visugpx.com">
  <metadata>
    <name>ladinhac</name>
  </metadata>
  <trk>
    <name><![CDATA[ladinhac_1]]></name>
    <trkseg>
      <trkpt lat="44.75494" lon="2.50878">
        <ele>659.9</ele>
        <time>2021-11-11T09:06:18Z</time>
      </trkpt>
      <trkpt lat="44.75493" lon="2.50883">
        <ele>663.2</ele>
        <time>2021-11-11T09:06:24Z</time>
      </trkpt>
      <trkpt lat="44.75493" lon="2.50883">
        <ele>663.9</ele>
        <time>2021-11-11T09:06:29Z</time>
      </trkpt>
      <trkpt lat="44.755" lon="2.50879">
        <ele>663.9</ele>
        <time>2021-11-11T09:06:35Z</time>
      </trkpt>
      <trkpt lat="44.75499" lon="2.5088">
        <ele>664.2</ele>
        <time>2021-11-11T09:06:41Z</time>
      </trkpt>
      <trkpt lat="44.75498" lon="2.5088">
        <ele>664</ele>
        <time>2021-11-11T09:06:46Z</time>
      </trkpt>
      <trkpt lat="44.75499" lon="2.50881">
        <ele>664.2</ele>
        <time>2021-11-11T09:06:51Z</time>
      </trkpt>
      <trkpt lat="44.75501" lon="2.5088">
        <ele>664.1</ele>
        <time>2021-11-11T09:06:56Z</time>
      </trkpt>
      <trkpt lat="44.75501" lon="2.50879">
        <ele>664.2</ele>
        <time>2021-11-11T09:07:01Z</time>
      </trkpt>
      <trkpt lat="44.75501" lon="2.50879">
        <ele>664.2</ele>
        <time>2021-11-11T09:07:07Z</time>
      </trkpt>
      <trkpt lat="44.75501" lon="2.50879">
        <ele>664.3</ele>
        <time>2021-11-11T09:07:13Z</time>
      </trkpt>
      <trkpt lat="44.75501" lon="2.50879">
        <ele>664.4</ele>
        <time>2021-11-11T09:07:18Z</time>
      </trkpt>
      <trkpt lat="44.75501" lon="2.50879">
        <ele>664.4</ele>
        <time>2021-11-11T09:07:23Z</time>
      </trkpt>
      <trkpt lat="44.75498" lon="2.50886">
        <ele>664.3</ele>
        <time>2021-11-11T09:07:29Z</time>
      </trkpt>
      <trkpt lat="44.75496" lon="2.50892">
        <ele>664.4</ele>
        <time>2021-11-11T09:07:35Z</time>
      </trkpt>
      <trkpt lat="44.75494" lon="2.50896">
        <ele>664.3</ele>
        <time>2021-11-11T09:07:40Z</time>
      </trkpt>
      <trkpt lat="44.75492" lon="2.50899">
        <ele>664.5</ele>
        <time>2021-11-11T09:07:46Z</time>
      </trkpt>
      <trkpt lat="44.75491" lon="2.50904">
        <ele>664.4</ele>
        <time>2021-11-11T09:07:51Z</time>
      </trkpt>
      <trkpt lat="44.75491" lon="2.50903">
        <ele>664.4</ele>
        <time>2021-11-11T09:07:56Z</time>
      </trkpt>
      <trkpt lat="44.75491" lon="2.50902">
        <ele>664.5</ele>
        <time>2021-11-11T09:08:02Z</time>
      </trkpt>
      <trkpt lat="44.75491" lon="2.50902">
        <ele>664.5</ele>
        <time>2021-11-11T09:08:08Z</time>
      </trkpt>
      <trkpt lat="44.75491" lon="2.50903">
        <ele>664.5</ele>
        <time>2021-11-11T09:08:13Z</time>
      </trkpt>
      <trkpt lat="44.75491" lon="2.50903">
        <ele>664.5</ele>
        <time>2021-11-11T09:08:19Z</time>
      </trkpt>
      <trkpt lat="44.75489" lon="2.50902">
        <ele>664.6</ele>
        <time>2021-11-11T09:08:24Z</time>
      </trkpt>
      <trkpt lat="44.75489" lon="2.50901">
        <ele>664.6</ele>
        <time>2021-11-11T09:08:29Z</time>
      </trkpt>
      <trkpt lat="44.75488" lon="2.50901">
        <ele>664.7</ele>
        <time>2021-11-11T09:08:35Z</time>
      </trkpt>
      <trkpt lat="44.75487" lon="2.509">
        <ele>664.7</ele>
        <time>2021-11-11T09:08:40Z</time>
      </trkpt>
      <trkpt lat="44.75486" lon="2.509">
        <ele>664.7</ele>
        <time>2021-11-11T09:08:45Z</time>
      </trkpt>
      <trkpt lat="44.75486" lon="2.50899">
        <ele>664.6</ele>
        <time>2021-11-11T09:08:51Z</time>
      </trkpt>
      <trkpt lat="44.75487" lon="2.509">
        <ele>664.6</ele>
        <time>2021-11-11T09:08:57Z</time>
      </trkpt>
      <trkpt lat="44.75487" lon="2.50899">
        <ele>664.7</ele>
        <time>2021-11-11T09:09:02Z</time>
      </trkpt>
      <trkpt lat="44.75484" lon="2.509">
        <ele>664.6</ele>
        <time>2021-11-11T09:09:08Z</time>
      </trkpt>
      <trkpt lat="44.75487" lon="2.50909">
        <ele>664.5</ele>
        <time>2021-11-11T09:09:13Z</time>
      </trkpt>
      <trkpt lat="44.75496" lon="2.50914">
        <ele>664.5</ele>
        <time>2021-11-11T09:09:19Z</time>
      </trkpt>
      <trkpt lat="44.75505" lon="2.50916">
        <ele>664.6</ele>
        <time>2021-11-11T09:09:24Z</time>
      </trkpt>
      <trkpt lat="44.7551" lon="2.50916">
        <ele>664.6</ele>
        <time>2021-11-11T09:09:30Z</time>
      </trkpt>
      <trkpt lat="44.75514" lon="2.50919">
        <ele>664.6</ele>
        <time>2021-11-11T09:09:35Z</time>
      </trkpt>
      <trkpt lat="44.75517" lon="2.5092">
        <ele>665.6</ele>
        <time>2021-11-11T09:09:41Z</time>
      </trkpt>
      <trkpt lat="44.75519" lon="2.5092">
        <ele>665.8</ele>
        <time>2021-11-11T09:09:46Z</time>
      </trkpt>
      <trkpt lat="44.7552" lon="2.5092">
        <ele>665.8</ele>
        <time>2021-11-11T09:09:51Z</time>
      </trkpt>
      <trkpt lat="44.7552" lon="2.5092">
        <ele>665.8</ele>
        <time>2021-11-11T09:09:57Z</time>
      </trkpt>
      <trkpt lat="44.75523" lon="2.50923">
        <ele>665.7</ele>
        <time>2021-11-11T09:10:03Z</time>
      </trkpt>
      <trkpt lat="44.75527" lon="2.50926">
        <ele>665.6</ele>
        <time>2021-11-11T09:10:09Z</time>
      </trkpt>
      <trkpt lat="44.7553" lon="2.50928">
        <ele>665.3</ele>
        <time>2021-11-11T09:10:14Z</time>
      </trkpt>
    </trkseg>
  </trk>
</gpx>